sensor_id;sensor_type;location;lat;lon;timestamp;pressure;altitude;pressure_sealevel;temperature;humidity
9738;BME280;4908;47.446;13.900;2023-07-22T00:02:21;92835.75;;;12.25;100.00
9738;BME280;4908;47.446;13.900;2023-07-22T00:04:48;92831.16;;;12.15;100.00
9738;BME280;4908;47.446;13.900;2023-07-22T00:07:15;92832.34;;;12.14;100.00
9738;BME280;4908;47.446;13.900;2023-07-22T00:09:42;92837.28;;;12.19;100.00
9738;BME280;4908;47.446;13.900;2023-07-22T00:12:11;92847.31;;;12.08;100.00
9738;BME280;4908;47.446;13.900;2023-07-22T00:14:38;92846.53;;;12.11;100.00
9738;BME280;4908;47.446;13.900;2023-07-22T00:17:06;92839.25;;;12.11;100.00
9738;BME280;4908;47.446;13.900;2023-07-22T00:19:33;92841.16;;;12.11;100.00
9738;BME280;4908;47.446;13.900;2023-07-22T00:22:00;92841.16;;;12.11;100.00
9738;BME280;4908;47.446;13.900;2023-07-22T00:24:27;92851.13;;;12.14;100.00
9738;BME280;4908;47.446;13.900;2023-07-22T00:26:54;92846.91;;;12.20;100.00
9738;BME280;4908;47.446;13.900;2023-07-22T00:29:23;92852.28;;;12.09;100.00
9738;BME280;4908;47.446;13.900;2023-07-22T00:31:50;92849.66;;;11.99;100.00
9738;BME280;4908;47.446;13.900;2023-07-22T00:34:17;92847.34;;;11.80;100.00
9738;BME280;4908;47.446;13.900;2023-07-22T00:36:44;92849.28;;;11.83;100.00
9738;BME280;4908;47.446;13.900;2023-07-22T00:39:12;92845.44;;;11.91;100.00
9738;BME280;4908;47.446;13.900;2023-07-22T00:41:40;92850.81;;;11.84;100.00
9738;BME280;4908;47.446;13.900;2023-07-22T00:44:09;92851.19;;;11.82;100.00
9738;BME280;4908;47.446;13.900;2023-07-22T00:46:39;92843.56;;;11.66;100.00
9738;BME280;4908;47.446;13.900;2023-07-22T00:49:07;92855.06;;;11.70;100.00
9738;BME280;4908;47.446;13.900;2023-07-22T00:51:34;92852.72;;;11.80;100.00
9738;BME280;4908;47.446;13.900;2023-07-22T00:54:01;92850.44;;;11.78;100.00
9738;BME280;4908;47.446;13.900;2023-07-22T00:56:32;92848.13;;;11.84;100.00
9738;BME280;4908;47.446;13.900;2023-07-22T00:59:00;92848.53;;;11.79;100.00
9738;BME280;4908;47.446;13.900;2023-07-22T01:01:27;92844.69;;;11.76;100.00
9738;BME280;4908;47.446;13.900;2023-07-22T01:03:56;92854.25;;;11.91;100.00
9738;BME280;4908;47.446;13.900;2023-07-22T01:06:23;92844.31;;;11.85;100.00
9738;BME280;4908;47.446;13.900;2023-07-22T01:08:51;92841.25;;;11.79;100.00
9738;BME280;4908;47.446;13.900;2023-07-22T01:11:18;92845.81;;;11.89;100.00
9738;BME280;4908;47.446;13.900;2023-07-22T01:13:45;92844.31;;;11.85;100.00
9738;BME280;4908;47.446;13.900;2023-07-22T01:16:12;92855.78;;;11.89;100.00
9738;BME280;4908;47.446;13.900;2023-07-22T01:18:39;92844.69;;;11.87;100.00
9738;BME280;4908;47.446;13.900;2023-07-22T01:21:08;92845.81;;;11.86;100.00
9738;BME280;4908;47.446;13.900;2023-07-22T01:23:38;92857.31;;;11.90;100.00
9738;BME280;4908;47.446;13.900;2023-07-22T01:26:06;92852.72;;;11.87;100.00
9738;BME280;4908;47.446;13.900;2023-07-22T01:28:35;92844.66;;;11.94;100.00
9738;BME280;4908;47.446;13.900;2023-07-22T01:31:02;92847.34;;;11.90;100.00
9738;BME280;4908;47.446;13.900;2023-07-22T01:33:31;92851.19;;;11.93;100.00
9738;BME280;4908;47.446;13.900;2023-07-22T01:35:58;92849.63;;;12.02;100.00
9738;BME280;4908;47.446;13.900;2023-07-22T01:38:25;92852.66;;;12.11;100.00
9738;BME280;4908;47.446;13.900;2023-07-22T01:40:53;92860.38;;;11.99;100.00
9738;BME280;4908;47.446;13.900;2023-07-22T01:43:20;92850.03;;;11.94;100.00
9738;BME280;4908;47.446;13.900;2023-07-22T01:45:47;92860.00;;;11.90;100.00
9738;BME280;4908;47.446;13.900;2023-07-22T01:48:14;92855.78;;;11.82;100.00
9738;BME280;4908;47.446;13.900;2023-07-22T01:50:41;92852.72;;;11.87;100.00
9738;BME280;4908;47.446;13.900;2023-07-22T01:53:08;92845.03;;;11.96;100.00
9738;BME280;4908;47.446;13.900;2023-07-22T01:55:35;92851.94;;;12.00;100.00
9738;BME280;4908;47.446;13.900;2023-07-22T01:58:04;92852.72;;;11.94;100.00
9738;BME280;4908;47.446;13.900;2023-07-22T02:00:31;92849.63;;;11.92;100.00
9738;BME280;4908;47.446;13.900;2023-07-22T02:02:58;92855.78;;;11.89;100.00
9738;BME280;4908;47.446;13.900;2023-07-22T02:05:25;92857.31;;;11.90;100.00
9738;BME280;4908;47.446;13.900;2023-07-22T02:07:54;92854.66;;;11.79;100.00
9738;BME280;4908;47.446;13.900;2023-07-22T02:10:21;92857.34;;;11.76;100.00
9738;BME280;4908;47.446;13.900;2023-07-22T02:12:48;92858.13;;;11.65;100.00
9738;BME280;4908;47.446;13.900;2023-07-22T02:15:17;92856.59;;;11.72;100.00
9738;BME280;4908;47.446;13.900;2023-07-22T02:17:44;92852.34;;;11.78;100.00
9738;BME280;4908;47.446;13.900;2023-07-22T02:20:11;92856.56;;;11.86;100.00
9738;BME280;4908;47.446;13.900;2023-07-22T02:22:39;92861.91;;;11.89;100.00
9738;BME280;4908;47.446;13.900;2023-07-22T02:25:07;92870.34;;;11.88;100.00
9738;BME280;4908;47.446;13.900;2023-07-22T02:27:36;92875.38;;;11.75;100.00
9738;BME280;4908;47.446;13.900;2023-07-22T02:30:05;92872.31;;;11.69;100.00
9738;BME280;4908;47.446;13.900;2023-07-22T02:32:38;92868.09;;;11.68;100.00
9738;BME280;4908;47.446;13.900;2023-07-22T02:35:06;92865.78;;;11.70;100.00
9738;BME280;4908;47.446;13.900;2023-07-22T02:37:33;92858.13;;;11.65;100.00
9738;BME280;4908;47.446;13.900;2023-07-22T02:40:01;92866.19;;;11.65;100.00
9738;BME280;4908;47.446;13.900;2023-07-22T02:42:33;92872.66;;;11.50;100.00
9738;BME280;4908;47.446;13.900;2023-07-22T02:45:01;92870.75;;;11.47;100.00
9738;BME280;4908;47.446;13.900;2023-07-22T02:47:29;92878.41;;;11.52;100.00
9738;BME280;4908;47.446;13.900;2023-07-22T02:49:58;92881.09;;;11.59;100.00
9738;BME280;4908;47.446;13.900;2023-07-22T02:52:25;92884.16;;;11.65;100.00
9738;BME280;4908;47.446;13.900;2023-07-22T02:55:07;92877.25;;;11.60;100.00
9738;BME280;4908;47.446;13.900;2023-07-22T02:57:36;92884.53;;;11.63;100.00
9738;BME280;4908;47.446;13.900;2023-07-22T03:00:05;92881.88;;;11.63;100.00
9738;BME280;4908;47.446;13.900;2023-07-22T03:02:34;92892.22;;;11.68;100.00
9738;BME280;4908;47.446;13.900;2023-07-22T03:05:03;92888.38;;;11.62;100.00
9738;BME280;4908;47.446;13.900;2023-07-22T03:07:33;92876.50;;;11.63;100.00
9738;BME280;4908;47.446;13.900;2023-07-22T03:10:00;92876.91;;;11.65;100.00
9738;BME280;4908;47.446;13.900;2023-07-22T03:12:28;92880.34;;;11.69;100.00
9738;BME280;4908;47.446;13.900;2023-07-22T03:14:55;92884.53;;;11.56;100.00
9738;BME280;4908;47.446;13.900;2023-07-22T03:17:22;92887.97;;;11.46;100.00
9738;BME280;4908;47.446;13.900;2023-07-22T03:19:50;92889.91;;;11.49;100.00
9738;BME280;4908;47.446;13.900;2023-07-22T03:22:19;92891.44;;;11.57;100.00
9738;BME280;4908;47.446;13.900;2023-07-22T03:24:46;92885.31;;;11.39;100.00
9738;BME280;4908;47.446;13.900;2023-07-22T03:27:14;92890.66;;;11.25;100.00
9738;BME280;4908;47.446;13.900;2023-07-22T03:29:43;92885.69;;;11.13;100.00
9738;BME280;4908;47.446;13.900;2023-07-22T03:32:10;92886.06;;;11.22;100.00
9738;BME280;4908;47.446;13.900;2023-07-22T03:34:37;92890.66;;;11.25;100.00
9738;BME280;4908;47.446;13.900;2023-07-22T03:37:04;92879.53;;;11.16;100.00
9738;BME280;4908;47.446;13.900;2023-07-22T03:39:33;92888.75;;;11.29;100.00
9738;BME280;4908;47.446;13.900;2023-07-22T03:42:00;92888.75;;;11.29;100.00
9738;BME280;4908;47.446;13.900;2023-07-22T03:44:29;92903.31;;;11.35;100.00
9738;BME280;4908;47.446;13.900;2023-07-22T03:46:56;92904.84;;;11.36;100.00
9738;BME280;4908;47.446;13.900;2023-07-22T03:49:24;92905.97;;;11.39;100.00
9738;BME280;4908;47.446;13.900;2023-07-22T03:51:51;92909.44;;;11.43;100.00
9738;BME280;4908;47.446;13.900;2023-07-22T03:54:18;92910.59;;;11.38;100.00
9738;BME280;4908;47.446;13.900;2023-07-22T03:56:47;92911.72;;;11.44;100.00
9738;BME280;4908;47.446;13.900;2023-07-22T03:59:14;92906.38;;;11.48;100.00
9738;BME280;4908;47.446;13.900;2023-07-22T04:01:41;92917.09;;;11.55;100.00
9738;BME280;4908;47.446;13.900;2023-07-22T04:04:08;92919.78;;;11.51;100.00
9738;BME280;4908;47.446;13.900;2023-07-22T04:06:36;92909.03;;;11.41;100.00
9738;BME280;4908;47.446;13.900;2023-07-22T04:09:03;92904.44;;;11.48;100.00
9738;BME280;4908;47.446;13.900;2023-07-22T04:11:30;92911.75;;;11.51;100.00
9738;BME280;4908;47.446;13.900;2023-07-22T04:13:59;92916.72;;;11.49;100.00
9738;BME280;4908;47.446;13.900;2023-07-22T04:16:26;92911.72;;;11.44;100.00
9738;BME280;4908;47.446;13.900;2023-07-22T04:18:53;92922.88;;;11.50;100.00
9738;BME280;4908;47.446;13.900;2023-07-22T04:21:20;92935.13;;;11.61;100.00
9738;BME280;4908;47.446;13.900;2023-07-22T04:23:47;92919.78;;;11.55;100.00
9738;BME280;4908;47.446;13.900;2023-07-22T04:26:14;92923.25;;;11.59;100.00
9738;BME280;4908;47.446;13.900;2023-07-22T04:28:41;92928.97;;;11.64;100.00
9738;BME280;4908;47.446;13.900;2023-07-22T04:31:10;92928.97;;;11.36;100.00
9738;BME280;4908;47.446;13.900;2023-07-22T04:33:37;92937.78;;;11.23;100.00
9738;BME280;4908;47.446;13.900;2023-07-22T04:36:04;92946.19;;;11.28;100.00
9738;BME280;4908;47.446;13.900;2023-07-22T04:38:32;92950.44;;;11.47;100.00
9738;BME280;4908;47.446;13.900;2023-07-22T04:40:59;92953.88;;;11.54;100.00
9738;BME280;4908;47.446;13.900;2023-07-22T04:43:28;92945.09;;;11.68;100.00
9738;BME280;4908;47.446;13.900;2023-07-22T04:45:55;92948.56;;;11.86;100.00
9738;BME280;4908;47.446;13.900;2023-07-22T04:48:23;92940.91;;;11.85;100.00
9738;BME280;4908;47.446;13.900;2023-07-22T04:50:50;92948.94;;;11.99;100.00
9738;BME280;4908;47.446;13.900;2023-07-22T04:53:18;92947.41;;;12.12;100.00
9738;BME280;4908;47.446;13.900;2023-07-22T04:55:45;92946.22;;;12.20;100.00
9738;BME280;4908;47.446;13.900;2023-07-22T04:58:12;92951.59;;;12.27;100.00
9738;BME280;4908;47.446;13.900;2023-07-22T05:00:39;92951.56;;;12.37;100.00
9738;BME280;4908;47.446;13.900;2023-07-22T05:03:07;92952.31;;;12.45;100.00
9738;BME280;4908;47.446;13.900;2023-07-22T05:05:36;92957.69;;;12.45;100.00
9738;BME280;4908;47.446;13.900;2023-07-22T05:08:03;92953.03;;;12.56;100.00
9738;BME280;4908;47.446;13.900;2023-07-22T05:10:30;92961.47;;;12.58;100.00
9738;BME280;4908;47.446;13.900;2023-07-22T05:12:57;92954.56;;;12.64;100.00
9738;BME280;4908;47.446;13.900;2023-07-22T05:15:24;92949.91;;;12.75;100.00
9738;BME280;4908;47.446;13.900;2023-07-22T05:17:51;92950.66;;;12.86;100.00
9738;BME280;4908;47.446;13.900;2023-07-22T05:20:19;92942.94;;;12.88;100.00
9738;BME280;4908;47.446;13.900;2023-07-22T05:22:49;92949.84;;;13.03;100.00
9738;BME280;4908;47.446;13.900;2023-07-22T05:25:16;92943.63;;;13.13;100.00
9738;BME280;4908;47.446;13.900;2023-07-22T05:27:43;92947.78;;;13.21;100.00
9738;BME280;4908;47.446;13.900;2023-07-22T05:30:10;92945.78;;;13.39;100.00
9738;BME280;4908;47.446;13.900;2023-07-22T05:32:37;92944.16;;;13.52;100.00
9738;BME280;4908;47.446;13.900;2023-07-22T05:35:05;92935.66;;;13.61;100.00
9738;BME280;4908;47.446;13.900;2023-07-22T05:37:32;92935.59;;;13.72;100.00
9738;BME280;4908;47.446;13.900;2023-07-22T05:40:00;92942.47;;;13.73;100.00
9738;BME280;4908;47.446;13.900;2023-07-22T05:42:28;92942.47;;;13.73;100.00
9738;BME280;4908;47.446;13.900;2023-07-22T05:44:56;92942.38;;;13.87;100.00
9738;BME280;4908;47.446;13.900;2023-07-22T05:47:23;92937.38;;;13.89;100.00
9738;BME280;4908;47.446;13.900;2023-07-22T05:49:51;92936.53;;;13.99;100.00
9738;BME280;4908;47.446;13.900;2023-07-22T05:52:17;92942.34;;;13.90;100.00
9738;BME280;4908;47.446;13.900;2023-07-22T05:54:44;92947.28;;;13.99;100.00
9738;BME280;4908;47.446;13.900;2023-07-22T05:57:14;92943.06;;;13.98;100.00
9738;BME280;4908;47.446;13.900;2023-07-22T05:59:41;92938.41;;;14.02;100.00
9738;BME280;4908;47.446;13.900;2023-07-22T06:02:08;92938.38;;;14.05;100.00
9738;BME280;4908;47.446;13.900;2023-07-22T06:04:36;92947.47;;;14.22;100.00
9738;BME280;4908;47.446;13.900;2023-07-22T06:07:05;92942.81;;;14.26;100.00
9738;BME280;4908;47.446;13.900;2023-07-22T06:09:32;92939.56;;;14.45;100.00
9738;BME280;4908;47.446;13.900;2023-07-22T06:11:59;92943.19;;;14.65;100.00
9738;BME280;4908;47.446;13.900;2023-07-22T06:14:27;92949.25;;;14.76;100.00
9738;BME280;4908;47.446;13.900;2023-07-22T06:16:54;92943.09;;;14.76;100.00
9738;BME280;4908;47.446;13.900;2023-07-22T06:19:21;92937.59;;;14.86;100.00
9738;BME280;4908;47.446;13.900;2023-07-22T06:21:49;92939.00;;;14.94;100.00
9738;BME280;4908;47.446;13.900;2023-07-22T06:24:16;92946.66;;;14.99;100.00
9738;BME280;4908;47.446;13.900;2023-07-22T06:26:43;92940.41;;;15.06;100.00
9738;BME280;4908;47.446;13.900;2023-07-22T06:29:10;92934.41;;;15.21;100.00
9738;BME280;4908;47.446;13.900;2023-07-22T06:31:38;92945.28;;;15.48;100.00
9738;BME280;4908;47.446;13.900;2023-07-22T06:34:05;92940.72;;;15.68;100.00
9738;BME280;4908;47.446;13.900;2023-07-22T06:36:32;92946.34;;;15.81;100.00
9738;BME280;4908;47.446;13.900;2023-07-22T06:38:59;92944.53;;;15.97;100.00
9738;BME280;4908;47.446;13.900;2023-07-22T06:41:26;92948.84;;;16.18;100.00
9738;BME280;4908;47.446;13.900;2023-07-22T06:43:53;92943.66;;;16.27;100.00
9738;BME280;4908;47.446;13.900;2023-07-22T06:46:20;92947.78;;;16.35;100.00
9738;BME280;4908;47.446;13.900;2023-07-22T06:48:49;92946.28;;;16.31;100.00
9738;BME280;4908;47.446;13.900;2023-07-22T06:51:16;92950.13;;;16.10;100.00
9738;BME280;4908;47.446;13.900;2023-07-22T06:53:43;92944.78;;;16.30;100.00
9738;BME280;4908;47.446;13.900;2023-07-22T06:56:10;92950.88;;;16.34;100.00
9738;BME280;4908;47.446;13.900;2023-07-22T06:58:37;92952.41;;;16.35;100.00
9738;BME280;4908;47.446;13.900;2023-07-22T07:01:04;92949.41;;;16.29;100.00
9738;BME280;4908;47.446;13.900;2023-07-22T07:03:31;92957.63;;;16.45;100.00
9738;BME280;4908;47.446;13.900;2023-07-22T07:05:59;92955.19;;;16.54;100.00
9738;BME280;4908;47.446;13.900;2023-07-22T07:08:27;92958.09;;;16.63;100.00
9738;BME280;4908;47.446;13.900;2023-07-22T07:10:54;92964.91;;;16.71;100.00
9738;BME280;4908;47.446;13.900;2023-07-22T07:13:21;92957.84;;;16.77;100.00
9738;BME280;4908;47.446;13.900;2023-07-22T07:15:48;92959.06;;;16.96;100.00
9738;BME280;4908;47.446;13.900;2023-07-22T07:18:15;92954.34;;;17.00;100.00
9738;BME280;4908;47.446;13.900;2023-07-22T07:20:43;92962.56;;;16.93;100.00
9738;BME280;4908;47.446;13.900;2023-07-22T07:23:12;92960.56;;;17.17;100.00
9738;BME280;4908;47.446;13.900;2023-07-22T07:25:41;92963.78;;;17.12;100.00
9738;BME280;4908;47.446;13.900;2023-07-22T07:28:08;92958.13;;;17.42;100.00
9738;BME280;4908;47.446;13.900;2023-07-22T07:30:37;92962.66;;;17.48;100.00
9738;BME280;4908;47.446;13.900;2023-07-22T07:33:04;92969.88;;;17.71;100.00
9738;BME280;4908;47.446;13.900;2023-07-22T07:35:30;92964.84;;;17.89;100.00
9738;BME280;4908;47.446;13.900;2023-07-22T07:37:57;92963.00;;;18.02;100.00
9738;BME280;4908;47.446;13.900;2023-07-22T07:40:26;92968.41;;;18.02;100.00
9738;BME280;4908;47.446;13.900;2023-07-22T07:42:53;92961.09;;;17.83;100.00
9738;BME280;4908;47.446;13.900;2023-07-22T07:45:21;92956.44;;;17.48;100.00
9738;BME280;4908;47.446;13.900;2023-07-22T07:47:48;92958.75;;;17.49;100.00
9738;BME280;4908;47.446;13.900;2023-07-22T07:50:15;92965.50;;;17.77;100.00
9738;BME280;4908;47.446;13.900;2023-07-22T07:52:42;92961.28;;;17.92;100.00
9738;BME280;4908;47.446;13.900;2023-07-22T07:55:09;92964.69;;;18.12;100.00
9738;BME280;4908;47.446;13.900;2023-07-22T07:57:38;92962.75;;;18.13;100.00
9738;BME280;4908;47.446;13.900;2023-07-22T08:00:06;92961.47;;;18.17;100.00
9738;BME280;4908;47.446;13.900;2023-07-22T08:02:34;92955.13;;;18.24;100.00
9738;BME280;4908;47.446;13.900;2023-07-22T08:05:01;92957.06;;;18.39;100.00
9738;BME280;4908;47.446;13.900;2023-07-22T08:07:29;92957.34;;;18.45;100.00
9738;BME280;4908;47.446;13.900;2023-07-22T08:09:56;92963.50;;;18.13;100.00
9738;BME280;4908;47.446;13.900;2023-07-22T08:12:24;92958.63;;;17.72;100.00
9738;BME280;4908;47.446;13.900;2023-07-22T08:14:53;92959.09;;;17.87;100.00
9738;BME280;4908;47.446;13.900;2023-07-22T08:17:20;92963.00;;;18.02;100.00
9738;BME280;4908;47.446;13.900;2023-07-22T08:19:47;92953.91;;;18.25;100.00
9738;BME280;4908;47.446;13.900;2023-07-22T08:22:14;92965.56;;;18.57;100.00
9738;BME280;4908;47.446;13.900;2023-07-22T08:24:42;92974.16;;;18.85;100.00
9738;BME280;4908;47.446;13.900;2023-07-22T08:27:09;92972.03;;;19.05;100.00
9738;BME280;4908;47.446;13.900;2023-07-22T08:29:36;92967.75;;;19.20;100.00
9738;BME280;4908;47.446;13.900;2023-07-22T08:32:05;92968.75;;;19.26;100.00
9738;BME280;4908;47.446;13.900;2023-07-22T08:34:32;92972.31;;;19.23;100.00
9738;BME280;4908;47.446;13.900;2023-07-22T08:36:59;92969.94;;;19.25;100.00
9738;BME280;4908;47.446;13.900;2023-07-22T08:39:26;92974.50;;;19.28;100.00
9738;BME280;4908;47.446;13.900;2023-07-22T08:41:54;92968.81;;;19.38;100.00
9738;BME280;4908;47.446;13.900;2023-07-22T08:44:22;92968.16;;;19.34;100.00
9738;BME280;4908;47.446;13.900;2023-07-22T08:46:55;92964.31;;;19.73;100.00
9738;BME280;4908;47.446;13.900;2023-07-22T08:49:25;92970.06;;;20.00;100.00
9738;BME280;4908;47.446;13.900;2023-07-22T08:51:54;92963.03;;;20.03;100.00
9738;BME280;4908;47.446;13.900;2023-07-22T08:54:23;92957.47;;;20.06;100.00
9738;BME280;4908;47.446;13.900;2023-07-22T08:56:51;92962.13;;;20.31;100.00
9738;BME280;4908;47.446;13.900;2023-07-22T08:59:19;92971.16;;;20.40;100.00
9738;BME280;4908;47.446;13.900;2023-07-22T09:01:48;92960.91;;;20.44;100.00
9738;BME280;4908;47.446;13.900;2023-07-22T09:04:15;92963.47;;;20.26;100.00
9738;BME280;4908;47.446;13.900;2023-07-22T09:06:46;92967.16;;;20.20;100.00
9738;BME280;4908;47.446;13.900;2023-07-22T09:09:14;92969.31;;;20.25;100.00
9738;BME280;4908;47.446;13.900;2023-07-22T09:11:42;92963.84;;;20.50;100.00
9738;BME280;4908;47.446;13.900;2023-07-22T09:14:10;92969.41;;;20.46;100.00
9738;BME280;4908;47.446;13.900;2023-07-22T09:16:37;92959.41;;;20.43;100.00
9738;BME280;4908;47.446;13.900;2023-07-22T09:19:04;92960.84;;;20.10;100.00
9738;BME280;4908;47.446;13.900;2023-07-22T09:21:32;92952.03;;;20.44;100.00
9738;BME280;4908;47.446;13.900;2023-07-22T09:24:19;92962.63;;;20.64;100.00
9738;BME280;4908;47.446;13.900;2023-07-22T09:26:46;92962.16;;;20.78;100.00
9738;BME280;4908;47.446;13.900;2023-07-22T09:29:14;92954.56;;;20.73;100.00
9738;BME280;4908;47.446;13.900;2023-07-22T09:31:49;92952.06;;;21.00;100.00
9738;BME280;4908;47.446;13.900;2023-07-22T09:34:17;92960.69;;;20.98;100.00
9738;BME280;4908;47.446;13.900;2023-07-22T09:36:50;92956.06;;;20.74;100.00
9738;BME280;4908;47.446;13.900;2023-07-22T09:39:19;92954.13;;;20.62;100.00
9738;BME280;4908;47.446;13.900;2023-07-22T09:41:46;92944.91;;;20.59;100.00
9738;BME280;4908;47.446;13.900;2023-07-22T09:44:14;92947.00;;;20.42;100.00
9738;BME280;4908;47.446;13.900;2023-07-22T09:46:41;92948.75;;;20.36;100.00
9738;BME280;4908;47.446;13.900;2023-07-22T09:49:09;92946.34;;;20.38;100.00
9738;BME280;4908;47.446;13.900;2023-07-22T09:51:38;92949.31;;;20.31;100.00
9738;BME280;4908;47.446;13.900;2023-07-22T09:54:06;92944.28;;;20.42;100.00
9738;BME280;4908;47.446;13.900;2023-07-22T09:56:46;92938.75;;;20.68;100.00
9738;BME280;4908;47.446;13.900;2023-07-22T09:59:14;92946.53;;;20.91;100.00
9738;BME280;4908;47.446;13.900;2023-07-22T10:01:43;92942.66;;;20.79;100.00
9738;BME280;4908;47.446;13.900;2023-07-22T10:04:15;92941.53;;;21.02;100.00
9738;BME280;4908;47.446;13.900;2023-07-22T10:06:43;92939.63;;;20.99;100.00
9738;BME280;4908;47.446;13.900;2023-07-22T10:09:12;92938.59;;;21.18;100.00
9738;BME280;4908;47.446;13.900;2023-07-22T10:11:39;92949.06;;;21.41;100.00
9738;BME280;4908;47.446;13.900;2023-07-22T10:14:08;92941.94;;;21.43;100.00
9738;BME280;4908;47.446;13.900;2023-07-22T10:16:38;92940.31;;;21.46;100.00
9738;BME280;4908;47.446;13.900;2023-07-22T10:19:05;92942.03;;;21.31;100.00
9738;BME280;4908;47.446;13.900;2023-07-22T10:21:33;92936.13;;;21.32;100.00
9738;BME280;4908;47.446;13.900;2023-07-22T10:24:02;92938.72;;;21.36;100.00
9738;BME280;4908;47.446;13.900;2023-07-22T10:26:31;92933.59;;;21.38;100.00
9738;BME280;4908;47.446;13.900;2023-07-22T10:28:59;92930.94;;;21.04;100.00
9738;BME280;4908;47.446;13.900;2023-07-22T10:31:31;92940.84;;;20.98;100.00
9738;BME280;4908;47.446;13.900;2023-07-22T10:33:58;92936.84;;;20.90;100.00
9738;BME280;4908;47.446;13.900;2023-07-22T10:36:29;92935.09;;;20.96;100.00
9738;BME280;4908;47.446;13.900;2023-07-22T10:38:57;92929.34;;;20.81;100.00
9738;BME280;4908;47.446;13.900;2023-07-22T10:41:25;92927.41;;;20.82;100.00
9738;BME280;4908;47.446;13.900;2023-07-22T10:43:54;92917.72;;;20.81;100.00
9738;BME280;4908;47.446;13.900;2023-07-22T10:46:33;92917.94;;;20.74;100.00
9738;BME280;4908;47.446;13.900;2023-07-22T10:49:10;92916.03;;;20.62;100.00
9738;BME280;4908;47.446;13.900;2023-07-22T10:51:39;92918.47;;;20.60;100.00
9738;BME280;4908;47.446;13.900;2023-07-22T10:54:11;92915.44;;;20.45;100.00
9738;BME280;4908;47.446;13.900;2023-07-22T10:56:43;92910.00;;;20.32;100.00
9738;BME280;4908;47.446;13.900;2023-07-22T10:59:10;92909.94;;;20.23;100.00
9738;BME280;4908;47.446;13.900;2023-07-22T11:01:40;92918.16;;;20.32;100.00
9738;BME280;4908;47.446;13.900;2023-07-22T11:04:22;92915.44;;;20.32;100.00
9738;BME280;4908;47.446;13.900;2023-07-22T11:06:57;92916.91;;;20.24;100.00
9738;BME280;4908;47.446;13.900;2023-07-22T11:09:34;92902.28;;;20.31;100.00
9738;BME280;4908;47.446;13.900;2023-07-22T11:12:04;92908.25;;;20.38;100.00
9738;BME280;4908;47.446;13.900;2023-07-22T11:14:33;92905.34;;;20.08;100.00
9738;BME280;4908;47.446;13.900;2023-07-22T11:17:03;92916.75;;;20.15;100.00
9738;BME280;4908;47.446;13.900;2023-07-22T11:19:31;92917.97;;;20.02;100.00
9738;BME280;4908;47.446;13.900;2023-07-22T11:21:59;92908.75;;;19.99;100.00
9738;BME280;4908;47.446;13.900;2023-07-22T11:24:27;92909.38;;;19.78;100.00
9738;BME280;4908;47.446;13.900;2023-07-22T11:26:55;92907.22;;;19.48;100.00
9738;BME280;4908;47.446;13.900;2023-07-22T11:29:22;92907.66;;;19.46;100.00
9738;BME280;4908;47.446;13.900;2023-07-22T11:31:50;92921.34;;;19.43;100.00
9738;BME280;4908;47.446;13.900;2023-07-22T11:34:20;92923.75;;;19.41;100.00
9738;BME280;4908;47.446;13.900;2023-07-22T11:36:48;92936.78;;;19.46;100.00
9738;BME280;4908;47.446;13.900;2023-07-22T11:39:17;92935.81;;;19.24;100.00
9738;BME280;4908;47.446;13.900;2023-07-22T11:41:46;92933.19;;;19.08;100.00
9738;BME280;4908;47.446;13.900;2023-07-22T11:44:15;92956.00;;;18.82;100.00
9738;BME280;4908;47.446;13.900;2023-07-22T11:46:52;92961.38;;;18.69;100.00
9738;BME280;4908;47.446;13.900;2023-07-22T11:49:27;92961.16;;;18.47;100.00
9738;BME280;4908;47.446;13.900;2023-07-22T11:51:55;92971.63;;;17.97;100.00
9738;BME280;4908;47.446;13.900;2023-07-22T11:54:23;92966.75;;;17.72;100.00
9738;BME280;4908;47.446;13.900;2023-07-22T11:56:50;92975.22;;;17.74;100.00
9738;BME280;4908;47.446;13.900;2023-07-22T11:59:32;92975.38;;;17.67;100.00
9738;BME280;4908;47.446;13.900;2023-07-22T12:02:00;92978.53;;;17.66;100.00
9738;BME280;4908;47.446;13.900;2023-07-22T12:04:30;92972.09;;;17.76;100.00
9738;BME280;4908;47.446;13.900;2023-07-22T12:06:58;92977.97;;;17.90;100.00
9738;BME280;4908;47.446;13.900;2023-07-22T12:09:25;92980.16;;;17.96;100.00
9738;BME280;4908;47.446;13.900;2023-07-22T12:11:56;92979.56;;;17.88;100.00
9738;BME280;4908;47.446;13.900;2023-07-22T12:14:24;92981.41;;;17.75;100.00
9738;BME280;4908;47.446;13.900;2023-07-22T12:16:55;92987.94;;;17.93;100.00
9738;BME280;4908;47.446;13.900;2023-07-22T12:19:24;92983.47;;;18.03;100.00
9738;BME280;4908;47.446;13.900;2023-07-22T12:21:52;92988.38;;;17.92;100.00
9738;BME280;4908;47.446;13.900;2023-07-22T12:24:20;92988.03;;;17.90;100.00
9738;BME280;4908;47.446;13.900;2023-07-22T12:26:47;92985.78;;;18.21;100.00
9738;BME280;4908;47.446;13.900;2023-07-22T12:29:14;92980.88;;;18.48;100.00
9738;BME280;4908;47.446;13.900;2023-07-22T12:31:41;92994.50;;;18.76;100.00
9738;BME280;4908;47.446;13.900;2023-07-22T12:34:08;93000.44;;;18.88;100.00
9738;BME280;4908;47.446;13.900;2023-07-22T12:36:35;92992.91;;;19.08;100.00
9738;BME280;4908;47.446;13.900;2023-07-22T12:39:04;92991.31;;;19.39;100.00
9738;BME280;4908;47.446;13.900;2023-07-22T12:41:31;92990.00;;;19.97;100.00
9738;BME280;4908;47.446;13.900;2023-07-22T12:43:58;92989.88;;;20.38;100.00
9738;BME280;4908;47.446;13.900;2023-07-22T12:46:25;92988.47;;;20.46;100.00
9738;BME280;4908;47.446;13.900;2023-07-22T12:48:53;92985.03;;;20.68;100.00
9738;BME280;4908;47.446;13.900;2023-07-22T12:51:20;92980.66;;;20.83;100.00
9738;BME280;4908;47.446;13.900;2023-07-22T12:53:47;92972.50;;;21.17;100.00
9738;BME280;4908;47.446;13.900;2023-07-22T12:56:16;92963.41;;;21.63;100.00
9738;BME280;4908;47.446;13.900;2023-07-22T12:58:43;92961.97;;;22.02;100.00
9738;BME280;4908;47.446;13.900;2023-07-22T13:01:10;92965.00;;;22.44;100.00
9738;BME280;4908;47.446;13.900;2023-07-22T13:03:38;92956.59;;;22.69;100.00
9738;BME280;4908;47.446;13.900;2023-07-22T13:06:05;92951.38;;;22.44;100.00